createdAt,value
2024-02-08T00:00:58.588Z,95612.53
2024-02-08T00:03:25.815Z,95610.44
2024-02-08T00:05:53.412Z,95625.66
2024-02-08T00:08:20.326Z,95618.06
2024-02-08T00:10:48.678Z,95629.56
2024-02-08T00:13:15.359Z,95634.69
2024-02-08T00:15:42.743Z,95638.19
2024-02-08T00:18:10.401Z,95639.88
2024-02-08T00:20:37.840Z,95637.72
2024-02-08T00:23:05.194Z,95642.22
2024-02-08T00:25:32.797Z,95637.41
2024-02-08T00:28:00.431Z,95641.16
2024-02-08T00:30:28.474Z,95635.09
2024-02-08T00:32:55.727Z,95628.13
2024-02-08T00:35:24.936Z,95631.03
2024-02-08T00:37:52.504Z,95613.19
2024-02-08T00:40:20.532Z,95618.09
2024-02-08T00:42:48.280Z,95627.19
2024-02-08T00:45:20.172Z,95612.88
2024-02-08T00:47:51.883Z,95613.06
2024-02-08T00:50:23.521Z,95617.03
2024-02-08T00:52:51.071Z,95603.09
2024-02-08T00:55:18.480Z,95612.34
2024-02-08T00:57:46.178Z,95603.75
2024-02-08T01:00:14.349Z,95607.72
2024-02-08T01:02:43.294Z,95606.47
2024-02-08T01:05:10.806Z,95610.41
2024-02-08T01:07:38.228Z,95602.50
2024-02-08T01:10:08.909Z,95604.78
2024-02-08T01:12:36.500Z,95608.06
2024-02-08T01:15:06.256Z,95606.81
2024-02-08T01:17:35.406Z,95610.47
2024-02-08T01:20:03.179Z,95618.91
2024-02-08T01:22:31.286Z,95614.66
2024-02-08T01:24:58.727Z,95619.91
2024-02-08T01:27:26.254Z,95618.94
2024-02-08T01:30:01.311Z,95616.44
2024-02-08T01:32:29.835Z,95612.34
2024-02-08T01:34:57.363Z,95610.34
2024-02-08T01:37:25.210Z,95618.47
2024-02-08T01:39:52.641Z,95613.66
2024-02-08T01:42:20.069Z,95610.59
2024-02-08T01:44:48.668Z,95603.81
2024-02-08T01:47:19.566Z,95610.50
2024-02-08T01:49:49.065Z,95612.06
2024-02-08T01:52:21.014Z,95618.38
2024-02-08T01:54:50.985Z,95616.56
2024-02-08T01:57:20.221Z,95605.53
2024-02-08T01:59:54.959Z,95613.38
2024-02-08T02:02:28.792Z,95605.75
2024-02-08T02:04:56.463Z,95592.41
2024-02-08T02:07:24.566Z,95606.13
2024-02-08T02:09:52.162Z,95600.06
2024-02-08T02:12:24.695Z,95599.63
2024-02-08T02:14:53.908Z,95597.44
2024-02-08T02:17:21.403Z,95595.41
2024-02-08T02:19:49.221Z,95598.06
2024-02-08T02:22:21.324Z,95603.19
2024-02-08T02:24:52.073Z,95590.16
2024-02-08T02:27:20.181Z,95601.13
2024-02-08T02:29:54.819Z,95600.31
2024-02-08T02:32:23.132Z,95599.56
2024-02-08T02:34:53.168Z,95599.06
2024-02-08T02:37:20.567Z,95595.63
2024-02-08T02:39:48.216Z,95589.84
2024-02-08T02:42:16.144Z,95585.38
2024-02-08T02:44:44.392Z,95594.00
2024-02-08T02:47:11.993Z,95598.56
2024-02-08T02:49:40.209Z,95588.38
2024-02-08T02:52:11.991Z,95597.63
2024-02-08T02:54:42.424Z,95588.50
2024-02-08T02:57:12.859Z,95588.00
2024-02-08T02:59:41.053Z,95574.09
2024-02-08T03:02:10.145Z,95576.22
2024-02-08T03:04:37.913Z,95577.09
2024-02-08T03:07:05.589Z,95572.22
2024-02-08T03:09:35.765Z,95571.72
2024-02-08T03:12:03.904Z,95577.09
2024-02-08T03:14:32.038Z,95566.31
2024-02-08T03:17:04.321Z,95574.03
2024-02-08T03:19:37.586Z,95578.19
2024-02-08T03:22:09.673Z,95574.00
2024-02-08T03:24:38.083Z,95574.59
2024-02-08T03:27:07.104Z,95575.31
2024-02-08T03:29:36.201Z,95572.94
2024-02-08T03:32:05.146Z,95568.53
2024-02-08T03:34:37.061Z,95564.69
2024-02-08T03:37:07.974Z,95563.63
2024-02-08T03:39:37.001Z,95562.03
2024-02-08T03:42:08.652Z,95559.03
2024-02-08T03:44:36.260Z,95557.44
2024-02-08T03:47:10.092Z,95568.66
2024-02-08T03:49:40.110Z,95569.63
2024-02-08T03:52:10.783Z,95564.25
2024-02-08T03:54:38.747Z,95562.13
2024-02-08T03:57:07.608Z,95562.38
2024-02-08T03:59:36.373Z,95562.47
2024-02-08T04:02:08.188Z,95555.88
2024-02-08T04:04:54.244Z,95566.75
2024-02-08T04:07:22.560Z,95557.13
2024-02-08T04:09:57.726Z,95563.19
2024-02-08T04:12:48.913Z,95561.72
2024-02-08T04:15:36.364Z,95558.22
2024-02-08T04:18:22.942Z,95557.72
2024-02-08T04:21:08.611Z,95560.47
2024-02-08T04:23:55.499Z,95563.88
2024-02-08T04:26:41.872Z,95554.28
2024-02-08T04:29:27.611Z,95557.44
2024-02-08T04:32:13.571Z,95556.81
2024-02-08T04:35:00.311Z,95546.47
2024-02-08T04:37:46.244Z,95540.19
2024-02-08T04:40:33.649Z,95533.81
2024-02-08T04:43:19.596Z,95540.00
2024-02-08T04:46:05.550Z,95539.50
2024-02-08T04:48:51.544Z,95543.91
2024-02-08T04:51:37.164Z,95549.53
2024-02-08T04:54:04.869Z,95537.97
2024-02-08T04:56:32.484Z,95538.75
2024-02-08T04:59:20.170Z,95539.63
2024-02-08T05:01:47.919Z,95542.16
2024-02-08T05:04:15.340Z,95541.66
2024-02-08T05:06:45.412Z,95544.41
2024-02-08T05:09:17.361Z,95543.25
2024-02-08T05:11:46.583Z,95536.06
2024-02-08T05:14:14.239Z,95540.47
2024-02-08T05:16:41.609Z,95545.75
2024-02-08T05:19:11.438Z,95541.22
2024-02-08T05:21:43.301Z,95538.47
2024-02-08T05:24:15.261Z,95537.88
2024-02-08T05:26:44.814Z,95543.94
2024-02-08T05:29:14.670Z,95544.16
2024-02-08T05:31:43.311Z,95540.72
2024-02-08T05:34:17.119Z,95549.25
2024-02-08T05:36:51.163Z,95549.38
2024-02-08T05:39:27.886Z,95538.09
2024-02-08T05:41:58.060Z,95543.34
2024-02-08T05:44:32.846Z,95535.94
2024-02-08T05:47:11.104Z,95543.00
2024-02-08T05:49:47.838Z,95546.53
2024-02-08T05:52:35.767Z,95534.78
2024-02-08T05:55:05.262Z,95537.25
2024-02-08T05:57:32.734Z,95528.91
2024-02-08T06:00:02.429Z,95529.63
2024-02-08T06:02:42.626Z,95525.47
2024-02-08T06:05:19.882Z,95511.47
2024-02-08T06:07:58.646Z,95511.47
2024-02-08T06:10:43.671Z,95495.88
2024-02-08T06:13:14.875Z,95491.34
2024-02-08T06:15:48.768Z,95497.53
2024-02-08T06:18:21.807Z,95500.50
2024-02-08T06:20:53.416Z,95503.13
2024-02-08T06:23:28.797Z,95498.84
2024-02-08T06:26:12.440Z,95506.75
2024-02-08T06:28:54.941Z,95498.88
2024-02-08T06:31:35.058Z,95500.13
2024-02-08T06:34:12.012Z,95502.16
2024-02-08T06:37:00.456Z,95506.69
2024-02-08T06:39:37.372Z,95511.81
2024-02-08T06:42:29.182Z,95506.31
2024-02-08T06:45:15.683Z,95513.38
2024-02-08T06:48:01.387Z,95508.34
2024-02-08T06:50:49.323Z,95504.69
2024-02-08T06:53:38.540Z,95502.88
2024-02-08T06:56:25.647Z,95515.25
2024-02-08T06:59:11.476Z,95520.47
2024-02-08T07:01:57.222Z,95531.25
2024-02-08T07:04:43.274Z,95521.03
2024-02-08T07:07:29.677Z,95515.56
2024-02-08T07:10:16.123Z,95515.22
2024-02-08T07:13:02.170Z,95509.06
2024-02-08T07:15:47.925Z,95505.75
2024-02-08T07:18:34.170Z,95503.59
2024-02-08T07:21:20.208Z,95504.53
2024-02-08T07:24:05.693Z,95508.84
2024-02-08T07:26:51.612Z,95512.53
2024-02-08T07:29:37.458Z,95505.50
2024-02-08T07:32:23.534Z,95514.53
2024-02-08T07:35:09.389Z,95502.41
2024-02-08T07:37:39.703Z,95504.78
2024-02-08T07:40:28.060Z,95507.03
2024-02-08T07:43:15.339Z,95498.97
2024-02-08T07:45:53.546Z,95497.16
2024-02-08T07:48:40.821Z,95500.03
2024-02-08T07:51:09.040Z,95495.84
2024-02-08T07:53:54.495Z,95490.78
2024-02-08T07:56:25.849Z,95484.91
2024-02-08T07:58:58.407Z,95498.72
2024-02-08T08:01:34.257Z,95492.63
2024-02-08T08:04:03.350Z,95488.00
2024-02-08T08:06:42.921Z,95495.75
2024-02-08T08:09:23.407Z,95488.72
2024-02-08T08:11:57.000Z,95490.13
2024-02-08T08:14:42.620Z,95486.75
2024-02-08T08:17:11.727Z,95475.72
2024-02-08T08:19:46.717Z,95481.41
2024-02-08T08:22:21.210Z,95471.34
2024-02-08T08:25:14.347Z,95473.09
2024-02-08T08:27:53.314Z,95476.81
2024-02-08T08:30:33.274Z,95456.22
2024-02-08T08:33:02.781Z,95457.44
2024-02-08T08:35:47.615Z,95449.97
2024-02-08T08:38:21.766Z,95449.09
2024-02-08T08:40:51.126Z,95445.75
2024-02-08T08:43:24.607Z,95442.22
2024-02-08T08:46:01.242Z,95431.09
2024-02-08T08:48:34.110Z,95435.78
2024-02-08T08:51:14.782Z,95433.72
2024-02-08T08:53:45.320Z,95436.91
2024-02-08T08:56:13.260Z,95438.78
2024-02-08T08:58:42.453Z,95446.94
2024-02-08T09:01:20.541Z,95450.94
2024-02-08T09:04:10.084Z,95444.41
2024-02-08T09:06:41.728Z,95439.00
2024-02-08T09:09:28.895Z,95437.28
2024-02-08T09:12:02.229Z,95433.81
2024-02-08T09:14:33.531Z,95432.19
2024-02-08T09:17:24.056Z,95432.72
2024-02-08T09:19:52.055Z,95420.88
2024-02-08T09:22:19.737Z,95425.28
2024-02-08T09:24:47.010Z,95423.78
2024-02-08T09:27:21.063Z,95418.28
2024-02-08T09:30:09.932Z,95416.81
2024-02-08T09:32:46.105Z,95407.56
2024-02-08T09:35:14.600Z,95407.56
2024-02-08T09:37:47.607Z,95391.44
2024-02-08T09:40:31.996Z,95396.34
2024-02-08T09:42:59.620Z,95393.41
2024-02-08T09:45:35.775Z,95385.25
2024-02-08T09:48:10.315Z,95389.66
2024-02-08T09:50:39.004Z,95381.59
2024-02-08T09:53:19.660Z,95374.69
2024-02-08T09:55:57.184Z,95371.41
2024-02-08T09:58:39.267Z,95367.25
2024-02-08T10:01:28.541Z,95364.50
2024-02-08T10:04:16.710Z,95371.75
2024-02-08T10:07:00.668Z,95360.16
2024-02-08T10:09:42.407Z,95356.28
2024-02-08T10:12:32.387Z,95354.19
2024-02-08T10:15:01.752Z,95348.78
2024-02-08T10:17:53.642Z,95340.91
2024-02-08T10:20:23.563Z,95346.88
2024-02-08T10:23:11.197Z,95338.03
2024-02-08T10:25:56.974Z,95336.22
2024-02-08T10:28:26.054Z,95326.81
2024-02-08T10:31:17.867Z,95323.50
2024-02-08T10:33:51.176Z,95321.41
2024-02-08T10:36:24.148Z,95317.94
2024-02-08T10:38:56.372Z,95309.91
2024-02-08T10:41:46.495Z,95312.16
2024-02-08T10:44:20.159Z,95309.38
2024-02-08T10:46:49.013Z,95295.41
2024-02-08T10:49:24.783Z,95292.13
2024-02-08T10:52:02.687Z,95294.00
2024-02-08T10:54:44.892Z,95283.13
2024-02-08T10:57:51.334Z,95279.38
2024-02-08T11:00:43.138Z,95271.13
2024-02-08T11:03:16.407Z,95267.25
2024-02-08T11:05:54.707Z,95258.44
2024-02-08T11:08:35.599Z,95260.66
2024-02-08T11:11:11.849Z,95253.75
2024-02-08T11:13:45.220Z,95255.09
2024-02-08T11:16:23.023Z,95254.53
2024-02-08T11:18:54.689Z,95248.75
2024-02-08T11:21:45.652Z,95242.59
2024-02-08T11:24:30.726Z,95241.69
2024-02-08T11:27:03.932Z,95238.06
2024-02-08T11:29:48.825Z,95243.00
2024-02-08T11:32:18.940Z,95233.69
2024-02-08T11:34:47.559Z,95222.66
2024-02-08T11:37:20.659Z,95219.38
2024-02-08T11:40:02.546Z,95217.63
2024-02-08T11:42:38.265Z,95211.09
2024-02-08T11:45:10.913Z,95212.00
2024-02-08T11:47:42.720Z,95213.44
2024-02-08T11:50:21.448Z,95207.88
2024-02-08T11:53:01.124Z,95193.13
2024-02-08T11:55:32.885Z,95189.94
2024-02-08T11:58:07.442Z,95192.59
2024-02-08T12:00:47.200Z,95188.44
2024-02-08T12:03:18.279Z,95166.56
2024-02-08T12:05:54.645Z,95178.09
2024-02-08T12:08:34.009Z,95179.84
2024-02-08T12:11:08.813Z,95169.31
2024-02-08T12:13:40.830Z,95172.50
2024-02-08T12:16:08.669Z,95168.44
2024-02-08T12:18:38.147Z,95153.78
2024-02-08T12:21:13.087Z,95149.75
2024-02-08T12:23:42.769Z,95145.41
2024-02-08T12:26:13.558Z,95144.97
2024-02-08T12:28:44.833Z,95145.53
2024-02-08T12:31:20.193Z,95141.44
2024-02-08T12:33:53.972Z,95137.56
2024-02-08T12:36:24.746Z,95149.09
2024-02-08T12:38:56.833Z,95139.56
2024-02-08T12:41:25.072Z,95148.13
2024-02-08T12:43:55.650Z,95145.19
2024-02-08T12:46:23.645Z,95142.94
2024-02-08T12:48:51.926Z,95140.91
2024-02-08T12:51:24.775Z,95143.06
2024-02-08T12:53:58.896Z,95147.50
2024-02-08T12:56:26.804Z,95146.75
2024-02-08T12:59:04.937Z,95133.97
2024-02-08T13:01:49.087Z,95134.41
2024-02-08T13:04:37.846Z,95121.25
2024-02-08T13:07:25.815Z,95125.22
2024-02-08T13:10:03.361Z,95114.34
2024-02-08T13:12:32.082Z,95106.38
2024-02-08T13:15:08.940Z,95116.09
2024-02-08T13:17:36.822Z,95109.06
2024-02-08T13:20:15.938Z,95115.38
2024-02-08T13:22:49.053Z,95105.81
2024-02-08T13:25:18.110Z,95100.84
2024-02-08T13:27:46.695Z,95099.31
2024-02-08T13:30:18.710Z,95095.50
2024-02-08T13:32:53.895Z,95104.22
2024-02-08T13:35:24.977Z,95091.91
2024-02-08T13:37:57.407Z,95098.72
2024-02-08T13:40:27.318Z,95091.41
2024-02-08T13:43:00.821Z,95090.78
2024-02-08T13:45:33.706Z,95093.69
2024-02-08T13:48:03.151Z,95091.63
2024-02-08T13:50:32.944Z,95097.72
2024-02-08T13:53:04.293Z,95086.53
2024-02-08T13:55:45.695Z,95091.59
2024-02-08T13:58:20.560Z,95086.81
2024-02-08T14:00:50.524Z,95073.91
2024-02-08T14:03:21.119Z,95075.06
2024-02-08T14:05:53.875Z,95070.63
2024-02-08T14:08:29.877Z,95064.69
2024-02-08T14:11:00.047Z,95062.75
2024-02-08T14:13:31.957Z,95062.88
2024-02-08T14:16:16.883Z,95051.38
2024-02-08T14:18:52.079Z,95047.03
2024-02-08T14:21:30.190Z,95036.47
2024-02-08T14:24:03.547Z,95033.22
2024-02-08T14:26:44.812Z,95032.53
2024-02-08T14:29:13.115Z,95029.88
2024-02-08T14:31:43.231Z,95039.75
2024-02-08T14:34:12.877Z,95032.81
2024-02-08T14:36:48.382Z,95032.00
2024-02-08T14:39:30.053Z,95024.13
2024-02-08T14:42:00.230Z,95029.19
2024-02-08T14:44:33.104Z,95024.31
2024-02-08T14:47:00.682Z,95022.13
2024-02-08T14:49:30.454Z,95015.69
2024-02-08T14:52:16.317Z,95022.63
2024-02-08T14:54:43.728Z,95017.03
2024-02-08T14:57:11.967Z,95011.78
2024-02-08T14:59:52.647Z,95002.00
2024-02-08T15:02:23.675Z,94998.84
2024-02-08T15:04:55.362Z,94995.91
2024-02-08T15:07:45.723Z,94985.50
2024-02-08T15:10:15.582Z,95003.50
2024-02-08T15:12:52.709Z,94992.78
2024-02-08T15:15:20.352Z,94980.94
2024-02-08T15:17:49.956Z,94994.06
2024-02-08T15:20:35.090Z,94997.53
2024-02-08T15:23:33.364Z,94985.50
2024-02-08T15:26:04.396Z,94991.19
2024-02-08T15:28:37.393Z,94986.78
2024-02-08T15:31:23.056Z,94996.66
2024-02-08T15:34:19.134Z,94992.66
2024-02-08T15:36:52.037Z,94989.19
2024-02-08T15:39:48.265Z,94997.50
2024-02-08T15:42:34.244Z,94991.50
2024-02-08T15:45:01.388Z,94991.22
2024-02-08T15:47:30.087Z,94994.50
2024-02-08T15:49:57.645Z,94976.25
2024-02-08T15:52:35.620Z,94979.31
2024-02-08T15:55:16.276Z,94976.84
2024-02-08T15:57:55.234Z,94972.06
2024-02-08T16:00:41.085Z,94972.13
2024-02-08T16:03:14.797Z,94964.16
2024-02-08T16:05:46.142Z,94964.84
2024-02-08T16:08:15.292Z,94954.94
2024-02-08T16:10:42.223Z,94963.16
2024-02-08T16:13:08.957Z,94960.88
2024-02-08T16:15:55.682Z,94956.75
2024-02-08T16:18:27.377Z,94951.44
2024-02-08T16:20:55.951Z,94956.38
2024-02-08T16:23:27.622Z,94943.91
2024-02-08T16:26:07.731Z,94940.63
2024-02-08T16:28:39.024Z,94946.34
2024-02-08T16:31:25.344Z,94950.97
2024-02-08T16:34:09.269Z,94942.41
2024-02-08T16:36:45.724Z,94943.88
2024-02-08T16:39:15.425Z,94941.09
2024-02-08T16:41:49.968Z,94943.72
2024-02-08T16:44:30.839Z,94944.41
2024-02-08T16:47:01.106Z,94931.06
2024-02-08T16:49:31.675Z,94931.56
2024-02-08T16:52:05.572Z,94940.25
2024-02-08T16:54:35.882Z,94933.88
2024-02-08T16:57:05.080Z,94940.75
2024-02-08T16:59:46.174Z,94933.56
2024-02-08T17:02:21.023Z,94925.44
2024-02-08T17:04:51.395Z,94942.44
2024-02-08T17:07:37.961Z,94945.53
2024-02-08T17:10:07.561Z,94919.56
2024-02-08T17:12:46.974Z,94931.25
2024-02-08T17:15:28.205Z,94924.84
2024-02-08T17:18:11.405Z,94927.63
2024-02-08T17:20:39.199Z,94914.78
2024-02-08T17:23:17.580Z,94928.31
2024-02-08T17:26:06.034Z,94924.34
2024-02-08T17:28:33.115Z,94925.34
2024-02-08T17:31:06.441Z,94927.13
2024-02-08T17:33:40.820Z,94927.16
2024-02-08T17:36:17.668Z,94931.13
2024-02-08T17:38:45.498Z,94917.91
2024-02-08T17:41:15.533Z,94923.19
2024-02-08T17:43:51.376Z,94924.84
2024-02-08T17:46:21.630Z,94918.75
2024-02-08T17:48:51.945Z,94919.38
2024-02-08T17:51:32.816Z,94909.16
2024-02-08T17:54:02.023Z,94919.56
2024-02-08T17:56:32.791Z,94914.97
2024-02-08T17:59:00.584Z,94909.84
2024-02-08T18:01:49.445Z,94921.25
2024-02-08T18:04:18.447Z,94925.31
2024-02-08T18:06:45.842Z,94909.00
2024-02-08T18:09:18.010Z,94925.69
2024-02-08T18:11:50.680Z,94922.88
2024-02-08T18:14:19.159Z,94933.91
2024-02-08T18:16:47.079Z,94921.22
2024-02-08T18:19:16.511Z,94932.91
2024-02-08T18:21:44.952Z,94931.44
2024-02-08T18:24:11.653Z,94918.06
2024-02-08T18:26:38.426Z,94922.69
2024-02-08T18:29:05.304Z,94923.03
2024-02-08T18:31:36.138Z,94926.66
2024-02-08T18:34:03.496Z,94930.78
2024-02-08T18:36:31.565Z,94920.22
2024-02-08T18:38:59.597Z,94925.50
2024-02-08T18:41:27.175Z,94917.63
2024-02-08T18:43:54.174Z,94917.78
2024-02-08T18:46:25.635Z,94912.81
2024-02-08T18:48:57.586Z,94918.44
2024-02-08T18:51:24.742Z,94911.66
2024-02-08T18:53:51.653Z,94925.31
2024-02-08T18:56:21.647Z,94927.13
2024-02-08T18:58:53.210Z,94910.97
2024-02-08T19:01:22.224Z,94915.44
2024-02-08T19:03:49.491Z,94908.50
2024-02-08T19:06:17.184Z,94916.09
2024-02-08T19:08:45.233Z,94910.97
2024-02-08T19:11:12.390Z,94917.56
2024-02-08T19:13:41.022Z,94909.97
2024-02-08T19:16:17.643Z,94909.69
2024-02-08T19:18:47.505Z,94929.59
2024-02-08T19:21:26.544Z,94925.63
2024-02-08T19:24:00.463Z,94919.06
2024-02-08T19:26:28.472Z,94908.31
2024-02-08T19:29:16.002Z,94900.91
2024-02-08T19:31:43.570Z,94899.41
2024-02-08T19:34:18.939Z,94898.06
2024-02-08T19:36:52.675Z,94893.13
2024-02-08T19:39:29.824Z,94892.66
2024-02-08T19:41:56.888Z,94889.16
2024-02-08T19:44:27.406Z,94890.50
2024-02-08T19:47:14.130Z,94894.78
2024-02-08T19:49:42.728Z,94888.81
2024-02-08T19:52:16.233Z,94885.88
2024-02-08T19:54:43.687Z,94891.16
2024-02-08T19:57:14.060Z,94881.06
2024-02-08T19:59:43.621Z,94876.13
2024-02-08T20:02:25.096Z,94885.00
2024-02-08T20:04:59.921Z,94869.63
2024-02-08T20:07:31.981Z,94862.28
2024-02-08T20:10:02.385Z,94866.88
2024-02-08T20:12:29.666Z,94863.91
2024-02-08T20:14:58.197Z,94859.28
2024-02-08T20:17:24.824Z,94848.56
2024-02-08T20:19:51.876Z,94863.53
2024-02-08T20:22:18.687Z,94846.09
2024-02-08T20:24:49.009Z,94848.94
2024-02-08T20:27:16.087Z,94841.16
2024-02-08T20:29:43.925Z,94846.59
2024-02-08T20:32:13.854Z,94841.63
2024-02-08T20:34:41.387Z,94840.13
2024-02-08T20:37:15.076Z,94829.66
2024-02-08T20:39:44.157Z,94830.75
2024-02-08T20:42:13.561Z,94824.31
2024-02-08T20:44:44.934Z,94829.03
2024-02-08T20:47:12.654Z,94822.59
2024-02-08T20:49:43.563Z,94824.25
2024-02-08T20:52:13.481Z,94826.13
2024-02-08T20:54:45.670Z,94832.84
2024-02-08T20:57:12.551Z,94823.19
2024-02-08T20:59:41.491Z,94821.66
2024-02-08T21:02:09.107Z,94824.50
2024-02-08T21:04:36.223Z,94807.81
2024-02-08T21:07:03.008Z,94801.97
2024-02-08T21:09:32.503Z,94804.44
2024-02-08T21:11:59.931Z,94809.34
2024-02-08T21:14:27.934Z,94798.16
2024-02-08T21:16:55.324Z,94792.06
2024-02-08T21:19:22.512Z,94794.53
2024-02-08T21:21:49.886Z,94795.03
2024-02-08T21:24:16.644Z,94788.75
2024-02-08T21:26:54.937Z,94786.28
2024-02-08T21:29:26.634Z,94788.94
2024-02-08T21:31:53.548Z,94787.72
2024-02-08T21:34:22.276Z,94782.19
2024-02-08T21:36:50.534Z,94773.94
2024-02-08T21:39:20.325Z,94772.63
2024-02-08T21:41:47.882Z,94775.25
2024-02-08T21:44:15.253Z,94781.63
2024-02-08T21:46:43.486Z,94769.53
2024-02-08T21:49:11.388Z,94768.50
2024-02-08T21:51:39.941Z,94759.16
2024-02-08T21:54:07.028Z,94760.28
2024-02-08T21:56:38.936Z,94754.53
2024-02-08T21:59:08.455Z,94754.50
2024-02-08T22:01:35.720Z,94757.63
2024-02-08T22:04:05.179Z,94750.72
2024-02-08T22:06:34.175Z,94749.09
2024-02-08T22:09:10.737Z,94741.03
2024-02-08T22:11:48.619Z,94747.28
2024-02-08T22:14:20.947Z,94744.63
2024-02-08T22:16:48.639Z,94751.75
2024-02-08T22:19:15.793Z,94747.59
2024-02-08T22:21:46.358Z,94750.91
2024-02-08T22:24:14.573Z,94759.97
2024-02-08T22:26:49.059Z,94748.44
2024-02-08T22:29:16.341Z,94748.13
2024-02-08T22:31:43.425Z,94749.75
2024-02-08T22:34:10.225Z,94745.44
2024-02-08T22:36:38.535Z,94733.75
2024-02-08T22:39:14.253Z,94728.66
2024-02-08T22:41:51.381Z,94724.72
2024-02-08T22:44:18.488Z,94716.66
2024-02-08T22:46:45.334Z,94711.03
2024-02-08T22:49:15.792Z,94716.66
2024-02-08T22:51:47.382Z,94711.56
2024-02-08T22:54:14.337Z,94715.50
2024-02-08T22:56:44.476Z,94714.66
2024-02-08T22:59:12.862Z,94706.94
2024-02-08T23:01:44.405Z,94704.31
2024-02-08T23:04:15.261Z,94698.88
2024-02-08T23:06:46.296Z,94684.53
2024-02-08T23:09:17.289Z,94681.06
2024-02-08T23:11:45.622Z,94677.94
2024-02-08T23:14:19.066Z,94673.50
2024-02-08T23:16:46.934Z,94664.44
2024-02-08T23:19:14.890Z,94663.63
2024-02-08T23:21:42.277Z,94665.94
2024-02-08T23:24:09.162Z,94648.97
2024-02-08T23:26:37.491Z,94648.97
2024-02-08T23:29:05.244Z,94644.34
2024-02-08T23:31:35.119Z,94651.25
2024-02-08T23:34:04.075Z,94651.94
2024-02-08T23:36:35.528Z,94649.63
2024-02-08T23:39:05.782Z,94647.16
2024-02-08T23:41:32.635Z,94648.16
2024-02-08T23:43:59.457Z,94642.72
2024-02-08T23:46:26.862Z,94642.22
2024-02-08T23:48:56.562Z,94642.34
2024-02-08T23:51:23.661Z,94626.56
2024-02-08T23:53:51.634Z,94638.09
2024-02-08T23:56:25.246Z,94632.63
2024-02-08T23:58:53.253Z,94636.78
